sensor_id;sensor_type;location;lat;lon;timestamp;pressure;altitude;pressure_sealevel;temperature;humidity
37610;BME280;23457;51.966;8.230;2023-04-09T00:00:10;101976.25;;;6.21;100.00
37610;BME280;23457;51.966;8.230;2023-04-09T00:02:40;101982.69;;;6.13;100.00
37610;BME280;23457;51.966;8.230;2023-04-09T00:05:10;101981.09;;;6.15;100.00
37610;BME280;23457;51.966;8.230;2023-04-09T00:07:36;101974.94;;;6.13;100.00
37610;BME280;23457;51.966;8.230;2023-04-09T00:10:03;101970.50;;;6.10;100.00
37610;BME280;23457;51.966;8.230;2023-04-09T00:12:30;101967.78;;;6.07;100.00
37610;BME280;23457;51.966;8.230;2023-04-09T00:14:57;101966.72;;;6.03;100.00
37610;BME280;23457;51.966;8.230;2023-04-09T00:17:23;101972.50;;;5.99;100.00
37610;BME280;23457;51.966;8.230;2023-04-09T00:19:50;101963.72;;;5.96;100.00
37610;BME280;23457;51.966;8.230;2023-04-09T00:22:17;101967.75;;;5.91;100.00
37610;BME280;23457;51.966;8.230;2023-04-09T00:24:43;101965.59;;;5.84;100.00
37610;BME280;23457;51.966;8.230;2023-04-09T00:27:10;101966.34;;;5.81;100.00
37610;BME280;23457;51.966;8.230;2023-04-09T00:29:36;101958.34;;;5.76;100.00
37610;BME280;23457;51.966;8.230;2023-04-09T00:32:03;101963.66;;;5.80;100.00
37610;BME280;23457;51.966;8.230;2023-04-09T00:34:30;101954.78;;;5.74;100.00
37610;BME280;23457;51.966;8.230;2023-04-09T00:36:57;101964.38;;;5.77;100.00
37610;BME280;23457;51.966;8.230;2023-04-09T00:39:24;101960.16;;;5.63;100.00
37610;BME280;23457;51.966;8.230;2023-04-09T00:41:58;101953.03;;;5.59;100.00
37610;BME280;23457;51.966;8.230;2023-04-09T00:44:28;101955.34;;;5.69;100.00
37610;BME280;23457;51.966;8.230;2023-04-09T00:46:57;101954.28;;;5.65;100.00
37610;BME280;23457;51.966;8.230;2023-04-09T00:49:24;101953.91;;;5.59;100.00
37610;BME280;23457;51.966;8.230;2023-04-09T00:51:52;101958.19;;;5.59;100.00
37610;BME280;23457;51.966;8.230;2023-04-09T00:54:19;101950.38;;;5.57;100.00
37610;BME280;23457;51.966;8.230;2023-04-09T00:56:46;101950.94;;;5.52;100.00
37610;BME280;23457;51.966;8.230;2023-04-09T00:59:13;101948.16;;;5.49;100.00
37610;BME280;23457;51.966;8.230;2023-04-09T01:01:40;101951.56;;;5.48;100.00
37610;BME280;23457;51.966;8.230;2023-04-09T01:04:07;101948.00;;;5.46;100.00
37610;BME280;23457;51.966;8.230;2023-04-09T01:06:58;101948.88;;;5.46;100.00
37610;BME280;23457;51.966;8.230;2023-04-09T01:09:32;101950.75;;;5.49;100.00
37610;BME280;23457;51.966;8.230;2023-04-09T01:15:10;101947.75;;;5.41;100.00
37610;BME280;23457;51.966;8.230;2023-04-09T01:17:49;101942.94;;;5.32;100.00
37610;BME280;23457;51.966;8.230;2023-04-09T01:20:29;101950.34;;;5.26;100.00
37610;BME280;23457;51.966;8.230;2023-04-09T01:23:18;101948.38;;;5.22;100.00
37610;BME280;23457;51.966;8.230;2023-04-09T01:26:10;101946.69;;;5.23;100.00
37610;BME280;23457;51.966;8.230;2023-04-09T01:28:53;101947.50;;;5.22;100.00
37610;BME280;23457;51.966;8.230;2023-04-09T01:31:27;101951.94;;;5.24;100.00
37610;BME280;23457;51.966;8.230;2023-04-09T01:33:54;101945.09;;;5.25;100.00
37610;BME280;23457;51.966;8.230;2023-04-09T01:36:23;101944.03;;;5.21;100.00
37610;BME280;23457;51.966;8.230;2023-04-09T01:38:51;101946.00;;;5.25;100.00
37610;BME280;23457;51.966;8.230;2023-04-09T01:41:20;101944.22;;;5.24;100.00
37610;BME280;23457;51.966;8.230;2023-04-09T01:43:49;101946.78;;;5.24;100.00
37610;BME280;23457;51.966;8.230;2023-04-09T01:46:17;101951.16;;;5.25;100.00
37610;BME280;23457;51.966;8.230;2023-04-09T01:48:45;101946.00;;;5.25;100.00
37610;BME280;23457;51.966;8.230;2023-04-09T01:51:13;101945.66;;;5.19;100.00
37610;BME280;23457;51.966;8.230;2023-04-09T01:53:40;101953.03;;;5.13;100.00
37610;BME280;23457;51.966;8.230;2023-04-09T01:56:07;101950.44;;;5.13;100.00
37610;BME280;23457;51.966;8.230;2023-04-09T01:58:35;101952.84;;;5.10;100.00
37610;BME280;23457;51.966;8.230;2023-04-09T02:03:34;101955.09;;;5.04;100.00
37610;BME280;23457;51.966;8.230;2023-04-09T02:06:17;101944.31;;;4.96;100.00
37610;BME280;23457;51.966;8.230;2023-04-09T02:08:47;101954.19;;;4.89;100.00
37610;BME280;23457;51.966;8.230;2023-04-09T02:11:15;101954.81;;;4.85;100.00
37610;BME280;23457;51.966;8.230;2023-04-09T02:13:43;101944.06;;;4.92;100.00
37610;BME280;23457;51.966;8.230;2023-04-09T02:16:12;101954.38;;;4.92;100.00
37610;BME280;23457;51.966;8.230;2023-04-09T02:18:41;101946.19;;;4.84;100.00
37610;BME280;23457;51.966;8.230;2023-04-09T02:21:08;101944.94;;;4.78;100.00
37610;BME280;23457;51.966;8.230;2023-04-09T02:23:36;101947.06;;;4.70;100.00
37610;BME280;23457;51.966;8.230;2023-04-09T02:26:03;101945.94;;;4.80;100.00
37610;BME280;23457;51.966;8.230;2023-04-09T02:28:30;101942.56;;;4.81;100.00
37610;BME280;23457;51.966;8.230;2023-04-09T02:30:56;101936.25;;;4.76;100.00
37610;BME280;23457;51.966;8.230;2023-04-09T02:33:23;101937.94;;;4.75;100.00
37610;BME280;23457;51.966;8.230;2023-04-09T02:35:49;101938.63;;;4.73;100.00
37610;BME280;23457;51.966;8.230;2023-04-09T02:38:18;101934.72;;;4.64;100.00
37610;BME280;23457;51.966;8.230;2023-04-09T02:40:44;101937.56;;;4.69;100.00
37610;BME280;23457;51.966;8.230;2023-04-09T02:43:11;101933.56;;;4.59;100.00
37610;BME280;23457;51.966;8.230;2023-04-09T02:45:37;101933.81;;;4.49;100.00
37610;BME280;23457;51.966;8.230;2023-04-09T02:48:04;101931.78;;;4.58;100.00
37610;BME280;23457;51.966;8.230;2023-04-09T02:50:33;101935.00;;;4.54;100.00
37610;BME280;23457;51.966;8.230;2023-04-09T02:53:00;101928.84;;;4.52;100.00
37610;BME280;23457;51.966;8.230;2023-04-09T02:55:27;101928.81;;;4.38;100.00
37610;BME280;23457;51.966;8.230;2023-04-09T02:57:54;101924.13;;;4.45;100.00
37610;BME280;23457;51.966;8.230;2023-04-09T03:00:20;101924.13;;;4.45;100.00
37610;BME280;23457;51.966;8.230;2023-04-09T03:02:47;101922.19;;;4.41;100.00
37610;BME280;23457;51.966;8.230;2023-04-09T03:05:14;101925.56;;;4.40;100.00
37610;BME280;23457;51.966;8.230;2023-04-09T03:07:41;101925.56;;;4.40;100.00
37610;BME280;23457;51.966;8.230;2023-04-09T03:10:08;101924.56;;;4.38;100.00
37610;BME280;23457;51.966;8.230;2023-04-09T03:12:35;101923.78;;;4.39;100.00
37610;BME280;23457;51.966;8.230;2023-04-09T03:15:01;101924.56;;;4.38;100.00
37610;BME280;23457;51.966;8.230;2023-04-09T03:17:29;101916.84;;;4.38;100.00
37610;BME280;23457;51.966;8.230;2023-04-09T03:19:57;101911.16;;;4.29;100.00
37610;BME280;23457;51.966;8.230;2023-04-09T03:22:36;101915.06;;;4.37;100.00
37610;BME280;23457;51.966;8.230;2023-04-09T03:25:09;101903.88;;;4.37;100.00
37610;BME280;23457;51.966;8.230;2023-04-09T03:27:36;101909.47;;;4.29;100.00
37610;BME280;23457;51.966;8.230;2023-04-09T03:30:03;101901.97;;;4.19;100.00
37610;BME280;23457;51.966;8.230;2023-04-09T03:32:39;101900.53;;;4.10;100.00
37610;BME280;23457;51.966;8.230;2023-04-09T03:35:09;101901.28;;;4.22;100.00
37610;BME280;23457;51.966;8.230;2023-04-09T03:37:36;101893.34;;;4.19;100.00
37610;BME280;23457;51.966;8.230;2023-04-09T03:40:08;101905.06;;;4.14;100.00
37610;BME280;23457;51.966;8.230;2023-04-09T03:42:35;101904.69;;;4.08;100.00
37610;BME280;23457;51.966;8.230;2023-04-09T03:45:05;101902.66;;;4.02;100.00
37610;BME280;23457;51.966;8.230;2023-04-09T03:47:38;101907.69;;;4.01;100.00
37610;BME280;23457;51.966;8.230;2023-04-09T03:50:06;101906.13;;;4.03;100.00
37610;BME280;23457;51.966;8.230;2023-04-09T03:52:44;101905.72;;;3.96;100.00
37610;BME280;23457;51.966;8.230;2023-04-09T03:55:11;101898.69;;;3.94;100.00
37610;BME280;23457;51.966;8.230;2023-04-09T03:57:38;101898.75;;;3.81;100.00
37610;BME280;23457;51.966;8.230;2023-04-09T04:00:09;101897.69;;;3.77;100.00
37610;BME280;23457;51.966;8.230;2023-04-09T04:02:49;101893.44;;;3.78;100.00
37610;BME280;23457;51.966;8.230;2023-04-09T04:05:25;101900.06;;;3.74;100.00
37610;BME280;23457;51.966;8.230;2023-04-09T04:07:54;101896.47;;;3.85;100.00
37610;BME280;23457;51.966;8.230;2023-04-09T04:10:25;101898.84;;;3.82;100.00
37610;BME280;23457;51.966;8.230;2023-04-09T04:12:52;101902.41;;;3.84;100.00
37610;BME280;23457;51.966;8.230;2023-04-09T04:15:32;101891.50;;;3.88;100.00
37610;BME280;23457;51.966;8.230;2023-04-09T04:17:59;101898.44;;;3.89;100.00
37610;BME280;23457;51.966;8.230;2023-04-09T04:20:55;101898.03;;;3.83;100.00
37610;BME280;23457;51.966;8.230;2023-04-09T04:23:22;101898.16;;;3.85;100.00
37610;BME280;23457;51.966;8.230;2023-04-09T04:25:56;101903.38;;;3.86;100.00
37610;BME280;23457;51.966;8.230;2023-04-09T04:28:29;101888.25;;;3.91;100.00
37610;BME280;23457;51.966;8.230;2023-04-09T04:30:56;101892.59;;;3.92;100.00
37610;BME280;23457;51.966;8.230;2023-04-09T04:33:22;101895.69;;;3.86;100.00
37610;BME280;23457;51.966;8.230;2023-04-09T04:35:52;101898.94;;;3.84;100.00
37610;BME280;23457;51.966;8.230;2023-04-09T04:38:34;101906.34;;;3.92;100.00
37610;BME280;23457;51.966;8.230;2023-04-09T04:41:05;101899.44;;;3.91;100.00
37610;BME280;23457;51.966;8.230;2023-04-09T04:43:35;101900.91;;;3.88;100.00
37610;BME280;23457;51.966;8.230;2023-04-09T04:46:02;101902.41;;;3.84;100.00
37610;BME280;23457;51.966;8.230;2023-04-09T04:48:30;101906.84;;;3.87;100.00
37610;BME280;23457;51.966;8.230;2023-04-09T04:50:59;101904.56;;;3.91;100.00
37610;BME280;23457;51.966;8.230;2023-04-09T04:53:32;101905.16;;;3.87;100.00
37610;BME280;23457;51.966;8.230;2023-04-09T04:56:05;101896.78;;;3.77;100.00
37610;BME280;23457;51.966;8.230;2023-04-09T04:58:31;101903.22;;;3.70;100.00
37610;BME280;23457;51.966;8.230;2023-04-09T05:01:00;101907.97;;;3.77;100.00
37610;BME280;23457;51.966;8.230;2023-04-09T05:03:27;101906.56;;;3.82;100.00
37610;BME280;23457;51.966;8.230;2023-04-09T05:06:04;101909.03;;;3.81;100.00
37610;BME280;23457;51.966;8.230;2023-04-09T05:08:38;101909.56;;;3.75;100.00
37610;BME280;23457;51.966;8.230;2023-04-09T05:11:05;101912.53;;;3.68;100.00
37610;BME280;23457;51.966;8.230;2023-04-09T05:13:35;101907.78;;;3.74;100.00
37610;BME280;23457;51.966;8.230;2023-04-09T05:16:06;101906.88;;;3.74;100.00
37610;BME280;23457;51.966;8.230;2023-04-09T05:18:34;101904.63;;;3.78;100.00
37610;BME280;23457;51.966;8.230;2023-04-09T05:21:01;101909.31;;;3.85;100.00
37610;BME280;23457;51.966;8.230;2023-04-09T05:23:30;101907.16;;;3.91;100.00
37610;BME280;23457;51.966;8.230;2023-04-09T05:25:57;101906.34;;;3.92;100.00
37610;BME280;23457;51.966;8.230;2023-04-09T05:28:32;101906.28;;;3.78;100.00
37610;BME280;23457;51.966;8.230;2023-04-09T05:31:11;101909.63;;;3.90;100.00
37610;BME280;23457;51.966;8.230;2023-04-09T05:33:45;101907.22;;;3.93;100.00
37610;BME280;23457;51.966;8.230;2023-04-09T05:36:18;101913.72;;;4.01;100.00
37610;BME280;23457;51.966;8.230;2023-04-09T05:38:45;101909.13;;;4.10;100.00
37610;BME280;23457;51.966;8.230;2023-04-09T05:41:12;101912.34;;;4.21;100.00
37610;BME280;23457;51.966;8.230;2023-04-09T05:43:50;101913.94;;;4.19;100.00
37610;BME280;23457;51.966;8.230;2023-04-09T05:46:17;101908.44;;;4.13;100.00
37610;BME280;23457;51.966;8.230;2023-04-09T05:48:45;101911.13;;;4.14;100.00
37610;BME280;23457;51.966;8.230;2023-04-09T05:51:12;101919.66;;;4.28;100.00
37610;BME280;23457;51.966;8.230;2023-04-09T05:53:41;101914.53;;;4.28;100.00
37610;BME280;23457;51.966;8.230;2023-04-09T05:56:14;101925.34;;;4.37;100.00
37610;BME280;23457;51.966;8.230;2023-04-09T05:58:50;101920.31;;;4.39;100.00
37610;BME280;23457;51.966;8.230;2023-04-09T06:01:16;101920.59;;;4.58;100.00
37610;BME280;23457;51.966;8.230;2023-04-09T06:03:43;101923.25;;;4.59;100.00
37610;BME280;23457;51.966;8.230;2023-04-09T06:06:11;101921.41;;;4.72;100.00
37610;BME280;23457;51.966;8.230;2023-04-09T06:08:38;101918.91;;;4.88;100.00
37610;BME280;23457;51.966;8.230;2023-04-09T06:11:08;101915.75;;;4.92;100.00
37610;BME280;23457;51.966;8.230;2023-04-09T06:13:36;101915.09;;;4.96;100.00
37610;BME280;23457;51.966;8.230;2023-04-09T06:16:04;101920.97;;;4.93;100.00
37610;BME280;23457;51.966;8.230;2023-04-09T06:18:32;101916.16;;;5.14;100.00
37610;BME280;23457;51.966;8.230;2023-04-09T06:21:06;101924.88;;;5.16;100.00
37610;BME280;23457;51.966;8.230;2023-04-09T06:23:34;101927.47;;;5.32;100.00
37610;BME280;23457;51.966;8.230;2023-04-09T06:26:01;101917.84;;;5.45;100.00
37610;BME280;23457;51.966;8.230;2023-04-09T06:28:28;101925.66;;;5.61;100.00
37610;BME280;23457;51.966;8.230;2023-04-09T06:30:55;101926.63;;;5.63;100.00
37610;BME280;23457;51.966;8.230;2023-04-09T06:33:22;101917.72;;;5.58;100.00
37610;BME280;23457;51.966;8.230;2023-04-09T06:35:48;101923.25;;;5.64;100.00
37610;BME280;23457;51.966;8.230;2023-04-09T06:38:15;101932.00;;;5.82;100.00
37610;BME280;23457;51.966;8.230;2023-04-09T06:40:43;101929.13;;;5.92;100.00
37610;BME280;23457;51.966;8.230;2023-04-09T06:43:09;101933.91;;;5.86;100.00
37610;BME280;23457;51.966;8.230;2023-04-09T06:45:42;101934.06;;;6.04;100.00
37610;BME280;23457;51.966;8.230;2023-04-09T06:48:10;101933.66;;;6.13;100.00
37610;BME280;23457;51.966;8.230;2023-04-09T06:50:36;101931.72;;;6.08;100.00
37610;BME280;23457;51.966;8.230;2023-04-09T06:53:04;101928.41;;;6.27;100.00
37610;BME280;23457;51.966;8.230;2023-04-09T06:55:31;101929.78;;;6.37;100.00
37610;BME280;23457;51.966;8.230;2023-04-09T06:57:58;101927.13;;;6.35;100.00
37610;BME280;23457;51.966;8.230;2023-04-09T07:00:25;101925.75;;;6.58;100.00
37610;BME280;23457;51.966;8.230;2023-04-09T07:02:52;101934.13;;;6.70;100.00
37610;BME280;23457;51.966;8.230;2023-04-09T07:05:19;101922.69;;;6.83;100.00
37610;BME280;23457;51.966;8.230;2023-04-09T07:07:46;101911.47;;;6.82;100.00
37610;BME280;23457;51.966;8.230;2023-04-09T07:10:12;101926.53;;;6.91;100.00
37610;BME280;23457;51.966;8.230;2023-04-09T07:12:39;101927.00;;;7.00;100.00
37610;BME280;23457;51.966;8.230;2023-04-09T07:15:06;101935.56;;;6.99;100.00
37610;BME280;23457;51.966;8.230;2023-04-09T07:17:33;101933.56;;;7.11;100.00
37610;BME280;23457;51.966;8.230;2023-04-09T07:20:00;101932.75;;;7.12;100.00
37610;BME280;23457;51.966;8.230;2023-04-09T07:22:27;101938.22;;;7.36;100.00
37610;BME280;23457;51.966;8.230;2023-04-09T07:24:54;101930.25;;;7.49;100.00
37610;BME280;23457;51.966;8.230;2023-04-09T07:27:23;101934.38;;;7.64;100.00
37610;BME280;23457;51.966;8.230;2023-04-09T07:29:53;101939.03;;;7.71;100.00
37610;BME280;23457;51.966;8.230;2023-04-09T07:32:19;101936.16;;;7.65;100.00
37610;BME280;23457;51.966;8.230;2023-04-09T07:34:46;101939.72;;;7.86;100.00
37610;BME280;23457;51.966;8.230;2023-04-09T07:37:12;101941.00;;;7.94;100.00
37610;BME280;23457;51.966;8.230;2023-04-09T07:39:39;101936.03;;;8.18;100.00
37610;BME280;23457;51.966;8.230;2023-04-09T07:42:07;101942.91;;;8.17;100.00
37610;BME280;23457;51.966;8.230;2023-04-09T07:44:35;101944.03;;;8.22;100.00
37610;BME280;23457;51.966;8.230;2023-04-09T07:47:03;101938.28;;;8.49;100.00
37610;BME280;23457;51.966;8.230;2023-04-09T07:49:32;101934.63;;;8.44;100.00
37610;BME280;23457;51.966;8.230;2023-04-09T07:51:59;101945.03;;;8.65;99.66
37610;BME280;23457;51.966;8.230;2023-04-09T07:54:26;101946.00;;;8.87;97.36
37610;BME280;23457;51.966;8.230;2023-04-09T07:56:53;101951.03;;;8.83;96.57
37610;BME280;23457;51.966;8.230;2023-04-09T07:59:20;101942.19;;;8.98;96.86
37610;BME280;23457;51.966;8.230;2023-04-09T08:01:46;101945.31;;;9.12;95.58
37610;BME280;23457;51.966;8.230;2023-04-09T08:04:13;101932.00;;;9.03;95.05
37610;BME280;23457;51.966;8.230;2023-04-09T08:06:40;101947.19;;;9.36;94.15
37610;BME280;23457;51.966;8.230;2023-04-09T08:09:06;101945.69;;;9.42;92.38
37610;BME280;23457;51.966;8.230;2023-04-09T08:11:33;101942.53;;;9.49;91.61
37610;BME280;23457;51.966;8.230;2023-04-09T08:14:00;101944.28;;;9.50;90.82
37610;BME280;23457;51.966;8.230;2023-04-09T08:16:31;101942.53;;;9.49;91.48
37610;BME280;23457;51.966;8.230;2023-04-09T08:18:58;101940.56;;;9.87;90.42
37610;BME280;23457;51.966;8.230;2023-04-09T08:21:25;101944.91;;;9.88;90.10
37610;BME280;23457;51.966;8.230;2023-04-09T08:23:52;101935.47;;;10.14;90.68
37610;BME280;23457;51.966;8.230;2023-04-09T08:26:18;101942.94;;;10.27;88.84
37610;BME280;23457;51.966;8.230;2023-04-09T08:28:45;101943.34;;;10.37;87.83
37610;BME280;23457;51.966;8.230;2023-04-09T08:31:12;101938.59;;;10.50;85.39
37610;BME280;23457;51.966;8.230;2023-04-09T08:33:38;101941.56;;;10.60;87.53
37610;BME280;23457;51.966;8.230;2023-04-09T08:36:08;101947.19;;;10.72;86.22
37610;BME280;23457;51.966;8.230;2023-04-09T08:38:36;101933.84;;;10.87;86.46
37610;BME280;23457;51.966;8.230;2023-04-09T08:41:04;101939.03;;;10.87;84.46
37610;BME280;23457;51.966;8.230;2023-04-09T08:43:31;101937.34;;;10.89;83.16
37610;BME280;23457;51.966;8.230;2023-04-09T08:46:19;101937.97;;;11.07;83.30
37610;BME280;23457;51.966;8.230;2023-04-09T08:48:47;101934.72;;;11.14;83.77
37610;BME280;23457;51.966;8.230;2023-04-09T08:51:19;101927.88;;;11.17;82.43
37610;BME280;23457;51.966;8.230;2023-04-09T08:53:47;101934.31;;;11.01;83.22
37610;BME280;23457;51.966;8.230;2023-04-09T08:56:15;101928.69;;;11.16;82.93
37610;BME280;23457;51.966;8.230;2023-04-09T08:58:43;101933.50;;;11.30;81.09
37610;BME280;23457;51.966;8.230;2023-04-09T09:01:24;101935.44;;;11.36;81.46
37610;BME280;23457;51.966;8.230;2023-04-09T09:06:32;101935.44;;;11.36;79.60
37610;BME280;23457;51.966;8.230;2023-04-09T09:09:15;101923.81;;;11.52;78.59
37610;BME280;23457;51.966;8.230;2023-04-09T09:11:47;101927.97;;;11.46;77.74
37610;BME280;23457;51.966;8.230;2023-04-09T09:14:17;101922.53;;;11.67;79.50
37610;BME280;23457;51.966;8.230;2023-04-09T09:17:03;101919.13;;;11.97;81.12
37610;BME280;23457;51.966;8.230;2023-04-09T09:19:32;101921.94;;;12.03;78.85
37610;BME280;23457;51.966;8.230;2023-04-09T09:22:03;101924.91;;;12.16;77.59
37610;BME280;23457;51.966;8.230;2023-04-09T09:24:31;101923.72;;;12.35;76.08
37610;BME280;23457;51.966;8.230;2023-04-09T09:26:59;101920.56;;;12.47;71.02
37610;BME280;23457;51.966;8.230;2023-04-09T09:29:26;101916.34;;;12.52;72.42
37610;BME280;23457;51.966;8.230;2023-04-09T09:31:54;101905.31;;;12.62;71.05
37610;BME280;23457;51.966;8.230;2023-04-09T09:34:22;101911.69;;;12.73;69.69
37610;BME280;23457;51.966;8.230;2023-04-09T09:36:49;101906.34;;;12.69;72.54
37610;BME280;23457;51.966;8.230;2023-04-09T09:39:16;101914.97;;;12.99;68.27
37610;BME280;23457;51.966;8.230;2023-04-09T09:41:44;101903.16;;;13.13;66.46
37610;BME280;23457;51.966;8.230;2023-04-09T09:44:12;101903.41;;;13.22;69.71
37610;BME280;23457;51.966;8.230;2023-04-09T09:46:56;101906.31;;;13.35;69.04
37610;BME280;23457;51.966;8.230;2023-04-09T09:49:23;101916.09;;;13.45;63.61
37610;BME280;23457;51.966;8.230;2023-04-09T09:51:52;101912.97;;;13.59;63.54
37610;BME280;23457;51.966;8.230;2023-04-09T09:54:21;101907.50;;;13.49;61.83
37610;BME280;23457;51.966;8.230;2023-04-09T09:56:51;101916.59;;;13.65;67.47
37610;BME280;23457;51.966;8.230;2023-04-09T09:59:29;101899.66;;;13.49;68.17
37610;BME280;23457;51.966;8.230;2023-04-09T10:01:59;101902.91;;;13.76;63.36
37610;BME280;23457;51.966;8.230;2023-04-09T10:04:34;101907.78;;;13.61;62.16
37610;BME280;23457;51.966;8.230;2023-04-09T10:07:04;101907.91;;;13.66;61.22
37610;BME280;23457;51.966;8.230;2023-04-09T10:09:34;101910.41;;;13.61;61.75
37610;BME280;23457;51.966;8.230;2023-04-09T10:12:03;101900.63;;;13.52;57.77
37610;BME280;23457;51.966;8.230;2023-04-09T10:14:33;101902.06;;;13.77;61.94
37610;BME280;23457;51.966;8.230;2023-04-09T10:17:01;101895.84;;;13.72;58.27
37610;BME280;23457;51.966;8.230;2023-04-09T10:19:41;101902.69;;;13.66;56.63
37610;BME280;23457;51.966;8.230;2023-04-09T10:22:11;101894.72;;;13.61;59.20
37610;BME280;23457;51.966;8.230;2023-04-09T10:24:39;101891.38;;;13.68;58.92
37610;BME280;23457;51.966;8.230;2023-04-09T10:27:10;101893.91;;;13.63;59.34
37610;BME280;23457;51.966;8.230;2023-04-09T10:29:43;101892.41;;;13.75;56.91
37610;BME280;23457;51.966;8.230;2023-04-09T10:32:20;101886.41;;;13.79;56.84
37610;BME280;23457;51.966;8.230;2023-04-09T10:34:48;101883.41;;;13.60;56.15
37610;BME280;23457;51.966;8.230;2023-04-09T10:37:21;101881.69;;;13.62;55.00
37610;BME280;23457;51.966;8.230;2023-04-09T10:39:48;101876.16;;;13.49;56.90
37610;BME280;23457;51.966;8.230;2023-04-09T10:42:28;101876.53;;;13.26;55.83
37610;BME280;23457;51.966;8.230;2023-04-09T10:45:06;101877.88;;;13.87;53.02
37610;BME280;23457;51.966;8.230;2023-04-09T10:47:38;101881.41;;;13.89;52.37
37610;BME280;23457;51.966;8.230;2023-04-09T10:50:23;101871.13;;;13.98;54.40
37610;BME280;23457;51.966;8.230;2023-04-09T10:52:52;101872.69;;;14.34;52.61
37610;BME280;23457;51.966;8.230;2023-04-09T10:55:38;101867.44;;;14.32;54.47
37610;BME280;23457;51.966;8.230;2023-04-09T10:58:07;101857.69;;;14.70;53.56
37610;BME280;23457;51.966;8.230;2023-04-09T11:00:40;101852.47;;;14.70;51.13
37610;BME280;23457;51.966;8.230;2023-04-09T11:06:09;101856.91;;;15.29;52.11
37610;BME280;23457;51.966;8.230;2023-04-09T11:08:37;101850.69;;;15.22;50.30
37610;BME280;23457;51.966;8.230;2023-04-09T11:11:04;101844.91;;;15.43;49.63
37610;BME280;23457;51.966;8.230;2023-04-09T11:13:31;101850.63;;;15.78;50.60
37610;BME280;23457;51.966;8.230;2023-04-09T11:15:58;101839.50;;;15.97;49.42
37610;BME280;23457;51.966;8.230;2023-04-09T11:18:28;101850.84;;;15.96;50.01
37610;BME280;23457;51.966;8.230;2023-04-09T11:21:01;101847.03;;;15.68;48.88
37610;BME280;23457;51.966;8.230;2023-04-09T11:23:30;101849.03;;;15.27;49.26
37610;BME280;23457;51.966;8.230;2023-04-09T11:25:57;101848.09;;;15.24;49.77
37610;BME280;23457;51.966;8.230;2023-04-09T11:28:25;101840.31;;;15.28;50.76
37610;BME280;23457;51.966;8.230;2023-04-09T11:30:52;101839.38;;;15.25;51.41
37610;BME280;23457;51.966;8.230;2023-04-09T11:33:19;101841.72;;;15.05;50.09
37610;BME280;23457;51.966;8.230;2023-04-09T11:35:47;101836.50;;;15.08;52.20
37610;BME280;23457;51.966;8.230;2023-04-09T11:38:14;101841.84;;;15.14;50.35
37610;BME280;23457;51.966;8.230;2023-04-09T11:40:42;101840.03;;;15.67;50.42
37610;BME280;23457;51.966;8.230;2023-04-09T11:43:14;101832.81;;;15.54;48.55
37610;BME280;23457;51.966;8.230;2023-04-09T11:45:46;101827.59;;;15.54;51.24
37610;BME280;23457;51.966;8.230;2023-04-09T11:48:15;101833.41;;;15.35;49.37
37610;BME280;23457;51.966;8.230;2023-04-09T11:50:43;101838.06;;;15.54;50.49
37610;BME280;23457;51.966;8.230;2023-04-09T11:53:18;101837.91;;;15.44;48.66
37610;BME280;23457;51.966;8.230;2023-04-09T11:55:48;101834.94;;;14.20;49.27
37610;BME280;23457;51.966;8.230;2023-04-09T11:58:15;101830.34;;;14.52;49.44
37610;BME280;23457;51.966;8.230;2023-04-09T12:00:42;101828.63;;;14.52;51.24
37610;BME280;23457;51.966;8.230;2023-04-09T12:03:09;101841.09;;;14.22;51.68
37610;BME280;23457;51.966;8.230;2023-04-09T12:05:36;101829.84;;;14.26;53.39
37610;BME280;23457;51.966;8.230;2023-04-09T12:08:07;101841.28;;;13.87;53.05
37610;BME280;23457;51.966;8.230;2023-04-09T12:10:36;101839.41;;;13.80;52.61
37610;BME280;23457;51.966;8.230;2023-04-09T12:13:08;101841.53;;;13.99;53.73
37610;BME280;23457;51.966;8.230;2023-04-09T12:15:40;101825.00;;;14.01;53.73
37610;BME280;23457;51.966;8.230;2023-04-09T12:18:12;101831.22;;;14.06;53.02
37610;BME280;23457;51.966;8.230;2023-04-09T12:20:41;101833.16;;;14.16;52.92
37610;BME280;23457;51.966;8.230;2023-04-09T12:23:11;101831.09;;;14.43;53.40
37610;BME280;23457;51.966;8.230;2023-04-09T12:25:39;101836.19;;;13.92;52.83
37610;BME280;23457;51.966;8.230;2023-04-09T12:28:09;101839.25;;;14.16;52.96
37610;BME280;23457;51.966;8.230;2023-04-09T12:30:36;101822.97;;;14.31;52.81
37610;BME280;23457;51.966;8.230;2023-04-09T12:33:03;101827.56;;;14.41;52.11
37610;BME280;23457;51.966;8.230;2023-04-09T12:35:30;101831.53;;;14.22;52.64
37610;BME280;23457;51.966;8.230;2023-04-09T12:37:57;101824.34;;;14.56;50.68
37610;BME280;23457;51.966;8.230;2023-04-09T12:40:27;101823.56;;;14.63;49.67
37610;BME280;23457;51.966;8.230;2023-04-09T12:42:53;101827.53;;;14.40;50.63
37610;BME280;23457;51.966;8.230;2023-04-09T12:45:21;101836.06;;;13.87;50.05
37610;BME280;23457;51.966;8.230;2023-04-09T12:47:47;101827.97;;;14.17;49.40
37610;BME280;23457;51.966;8.230;2023-04-09T12:50:15;101831.50;;;14.21;49.01
37610;BME280;23457;51.966;8.230;2023-04-09T12:52:42;101823.41;;;14.54;51.04
37610;BME280;23457;51.966;8.230;2023-04-09T12:55:10;101820.75;;;14.51;48.07
37610;BME280;23457;51.966;8.230;2023-04-09T12:57:38;101820.91;;;14.60;48.70
37610;BME280;23457;51.966;8.230;2023-04-09T13:00:06;101829.69;;;14.63;49.74
37610;BME280;23457;51.966;8.230;2023-04-09T13:02:33;101825.44;;;14.68;50.11
37610;BME280;23457;51.966;8.230;2023-04-09T13:05:01;101821.03;;;14.67;50.32
37610;BME280;23457;51.966;8.230;2023-04-09T13:07:28;101813.59;;;14.92;49.49
37610;BME280;23457;51.966;8.230;2023-04-09T13:09:56;101813.75;;;15.02;49.25
37610;BME280;23457;51.966;8.230;2023-04-09T13:12:23;101808.66;;;15.13;48.13